Time;durP1;ratioP1;P1;durP2;ratioP2;P2;SDS_P1;SDS_P2;PMS_P1;PMS_P2;Temp;Humidity;BMP_temperature;BMP_pressure;BME280_temperature;BME280_humidity;BME280_pressure;Samples;Min_cycle;Max_cycle;Signal;HPM_P1;HPM_P2
2021/11/18 01:01:28;;;;;;;;;23.75;23.00;;;;;9.52;71.35;102617.25;5628557;22;15886048;-82
2021/11/18 01:04:05;;;;;;;;;24.00;23.00;;;;;9.50;71.28;102625.06;6281586;22;47018;-84
2021/11/18 01:07:01;;;;;;;;;;;;;;;;;;;;;
2021/11/18 01:09:40;;;;;;;;;;;;;;;;;;;;;
2021/11/18 01:12:53;;;;;;;;;;;;;;;;;;;;;
2021/11/18 01:15:30;;;;;;;;;26.25;23.00;;;;;9.45;71.38;102649.44;6304793;22;75160;-83
2021/11/18 01:18:13;;;;;;;;;;;;;;;;;;;;;
2021/11/18 01:24:10;;;;;;;;;;;;;;;;;;;;;
2021/11/18 01:27:19;;;;;;;;;30.75;27.75;;;;;9.31;71.66;102653.38;6308804;22;75609;-83
2021/11/18 01:30:22;;;;;;;;;;;;;;;;;;;;;
2021/11/18 01:33:25;;;;;;;;;;;;;;;;;;;;;
2021/11/18 01:36:13;;;;;;;;;30.25;27.00;;;;;9.35;71.45;102652.59;6308577;22;72910;-84
2021/11/18 01:39:00;;;;;;;;;28.25;27.50;;;;;9.22;71.49;102632.91;6281474;22;46809;-83
2021/11/18 01:41:32;;;;;;;;;27.00;25.50;;;;;9.25;71.30;102643.56;6309441;22;45344;-83
2021/11/18 01:44:23;;;;;;;;;;;;;;;;;;;;;
2021/11/18 01:47:13;;;;;;;;;;;;;;;;;;;;;
2021/11/18 01:50:18;;;;;;;;;;;;;;;;;;;;;
2021/11/18 01:52:47;;;;;;;;;27.75;24.50;;;;;9.15;71.08;102658.13;6302680;22;72882;-84
2021/11/18 01:55:25;;;;;;;;;29.25;28.00;;;;;9.28;71.13;102681.31;6281512;22;45299;-83
2021/11/18 01:58:01;;;;;;;;;;;;;;;;;;;;;
2021/11/18 02:00:50;;;;;;;;;;;;;;;;;;;;;
2021/11/18 02:03:19;;;;;;;;;33.75;29.50;;;;;9.11;71.30;102674.59;6307967;22;72883;-83
2021/11/18 02:06:08;;;;;;;;;35.00;31.00;;;;;9.20;71.42;102677.56;6309296;22;45117;-83
2021/11/18 02:08:35;;;;;;;;;31.75;27.00;;;;;9.15;71.40;102662.47;6280992;22;45332;-83
2021/11/18 02:11:11;;;;;;;;;33.75;29.75;;;;;9.08;71.36;102656.13;6281585;22;46994;-83
2021/11/18 02:14:07;;;;;;;;;;;;;;;;;;;;;
2021/11/18 02:16:41;;;;;;;;;27.00;26.00;;;;;9.15;71.26;102662.47;6308544;22;69214;-84
2021/11/18 02:19:09;;;;;;;;;23.50;21.25;;;;;9.15;71.33;102668.63;6280436;22;45748;-82
2021/11/18 02:21:46;;;;;;;;;;;;;;;;;;;;;
2021/11/18 02:24:23;;;;;;;;;25.50;24.75;;;;;9.02;71.34;102648.94;6308479;22;73162;-83
2021/11/18 02:26:58;;;;;;;;;29.50;22.75;;;;;9.08;71.31;102674.50;6281512;22;45450;-82
2021/11/18 02:29:40;;;;;;;;;30.50;24.75;;;;;9.06;71.62;102673.56;6309541;22;45369;-83
2021/11/18 02:32:09;;;;;;;;;31.00;26.25;;;;;8.99;71.37;102655.81;6280308;22;47999;-83
2021/11/18 02:34:48;;;;;;;;;26.25;25.75;;;;;9.05;71.26;102666.53;6280830;22;45381;-83
2021/11/18 02:37:21;;;;;;;;;30.25;26.75;;;;;9.10;71.20;102685.97;6280784;22;45248;-83
2021/11/18 02:39:49;;;;;;;;;25.75;24.75;;;;;8.96;71.44;102672.38;6281206;22;45635;-83
2021/11/18 02:42:18;;;;;;;;;26.00;26.00;;;;;9.04;71.27;102689.28;6309055;22;45202;-83
2021/11/18 02:45:02;;;;;;;;;;;;;;;;;;;;;
2021/11/18 02:47:35;;;;;;;;;27.00;26.75;;;;;9.00;71.05;102687.38;6307912;22;69199;-83
2021/11/18 02:50:32;;;;;;;;;;;;;;;;;;;;;
2021/11/18 02:56:19;;;;;;;;;;;;;;;;;;;;;
2021/11/18 02:58:49;;;;;;;;;40.00;32.50;;;;;8.77;71.08;102659.47;6309344;22;68755;-83
2021/11/18 03:01:22;;;;;;;;;30.75;28.75;;;;;8.78;71.21;102666.47;6282349;22;45357;-83
2021/11/18 03:04:01;;;;;;;;;;;;;;;;;;;;;
2021/11/18 03:06:27;;;;;;;;;33.00;28.00;;;;;8.82;71.54;102681.50;6309206;22;71240;-83
2021/11/18 03:08:53;;;;;;;;;32.50;31.25;;;;;8.88;71.38;102696.59;6310812;22;45089;-83
2021/11/18 03:11:27;;;;;;;;;31.75;28.00;;;;;8.78;71.00;102693.63;6310243;22;45163;-83
2021/11/18 03:13:56;;;;;;;;;36.00;30.25;;;;;8.74;70.99;102689.13;6282330;22;48077;-82
2021/11/18 03:16:34;;;;;;;;;30.75;28.25;;;;;8.73;71.22;102687.31;6282272;22;45201;-83
2021/11/18 03:19:02;;;;;;;;;37.75;31.25;;;;;8.68;71.21;102688.00;6310232;22;45360;-83
2021/11/18 03:21:31;;;;;;;;;33.00;31.75;;;;;8.64;71.05;102679.13;6282275;22;45971;-84
2021/11/18 03:24:04;;;;;;;;;30.25;29.75;;;;;8.72;71.08;102696.06;6310348;22;45313;-82
2021/11/18 03:26:34;;;;;;;;;37.25;34.50;;;;;8.61;71.25;102679.91;6310751;22;45171;-83
2021/11/18 03:29:03;;;;;;;;;34.25;30.00;;;;;8.77;71.08;102718.13;6282180;22;45387;-84
2021/11/18 03:31:37;;;;;;;;;40.00;33.00;;;;;8.73;71.07;102703.06;6310507;22;45164;-83
2021/11/18 03:34:15;;;;;;;;;37.00;31.75;;;;;8.71;70.85;102702.13;6281525;22;47243;-84
2021/11/18 03:36:43;;;;;;;;;28.25;26.25;;;;;8.74;70.89;102709.22;6282422;22;45229;-83
2021/11/18 03:39:40;;;;;;;;;;;;;;;;;;;;;
2021/11/18 03:42:08;;;;;;;;;35.75;33.25;;;;;8.57;70.94;102680.63;6309420;22;72681;-83
2021/11/18 03:44:37;;;;;;;;;35.75;32.00;;;;;8.58;71.18;102692.94;6282487;22;47925;-83
2021/11/18 03:47:21;;;;;;;;;37.75;33.00;;;;;8.55;71.07;102687.59;6310672;22;45377;-83
2021/11/18 03:49:59;;;;;;;;;33.25;30.75;;;;;8.69;71.07;102716.06;6281936;22;45223;-84
2021/11/18 03:52:30;;;;;;;;;33.25;31.50;;;;;8.48;71.02;102688.19;6310293;22;45327;-84
2021/11/18 03:54:58;;;;;;;;;34.75;32.50;;;;;8.57;70.70;102713.88;6310266;22;45192;-83
2021/11/18 03:57:35;;;;;;;;;36.75;35.00;;;;;8.51;70.76;102704.03;6310488;22;45878;-83
2021/11/18 04:00:13;;;;;;;;;36.50;33.50;;;;;8.44;71.08;102696.78;6282011;22;45366;-84
2021/11/18 04:02:43;;;;;;;;;35.25;31.50;;;;;8.45;70.74;102710.81;6282166;22;45378;-84
2021/11/18 04:05:22;;;;;;;;;31.50;28.75;;;;;8.48;70.84;102719.69;6282015;22;47134;-83
2021/11/18 04:07:59;;;;;;;;;;;;;;;;;;;;;
2021/11/18 04:10:34;;;;;;;;;30.00;29.25;;;;;8.47;71.00;102717.00;6309122;22;68807;-84
2021/11/18 04:13:14;;;;;;;;;31.50;28.50;;;;;8.34;70.61;102713.91;6282124;22;45743;-84
2021/11/18 04:15:52;;;;;;;;;;;;;;;;;;;;;
2021/11/18 04:18:33;;;;;;;;;;;;;;;;;;;;;
2021/11/18 04:21:04;;;;;;;;;35.50;28.50;;;;;8.30;71.10;102704.09;6309268;22;68927;-83
2021/11/18 04:23:45;;;;;;;;;;;;;;;;;;;;;
2021/11/18 04:26:23;;;;;;;;;37.75;30.50;;;;;8.28;70.78;102720.63;6309414;22;75212;-84
2021/11/18 04:28:51;;;;;;;;;31.75;29.00;;;;;8.29;71.29;102730.31;6281924;22;45278;-83
2021/11/18 04:31:29;;;;;;;;;;;;;;;;;;;;;
2021/11/18 04:34:08;;;;;;;;;;;;;;;;;;;;;
2021/11/18 04:36:52;;;;;;;;;;;;;;;;;;;;;
2021/11/18 04:39:32;;;;;;;;;;;;;;;;;;;;;
2021/11/18 04:42:02;;;;;;;;;37.50;32.75;;;;;8.08;71.49;102733.00;6308298;22;69184;-83
2021/11/18 04:44:33;;;;;;;;;33.50;30.75;;;;;8.04;71.58;102733.72;6310389;22;45160;-83
2021/11/18 04:47:12;;;;;;;;;;;;;;;;;;;;;
2021/11/18 04:49:52;;;;;;;;;;;;;;;;;;;;;
2021/11/18 04:52:33;;;;;;;;;;;;;;;;;;;;;
2021/11/18 04:55:11;;;;;;;;;35.25;30.50;;;;;7.98;71.30;102743.97;6309153;22;72549;-83
2021/11/18 04:57:46;;;;;;;;;38.00;34.25;;;;;7.95;71.76;102752.59;6282250;22;48164;-82
2021/11/18 05:00:25;;;;;;;;;36.75;30.75;;;;;8.08;71.59;102774.97;6307297;22;45239;-84
2021/11/18 05:03:04;;;;;;;;;;;;;;;;;;;;;
2021/11/18 05:05:41;;;;;;;;;;;;;;;;;;;;;
2021/11/18 05:08:26;;;;;;;;;;;;;;;;;;;;;
2021/11/18 05:11:25;;;;;;;;;;;;;;;;;;;;;
2021/11/18 05:14:01;;;;;;;;;26.50;25.50;;;;;7.87;71.55;102761.91;6309811;22;68592;-83
2021/11/18 05:16:48;;;;;;;;;;;;;;;;;;;;;
2021/11/18 05:19:50;;;;;;;;;;;;;;;;;;;;;
2021/11/18 05:22:28;;;;;;;;;31.75;29.50;;;;;7.77;71.68;102750.13;6308677;22;71430;-84
2021/11/18 05:25:17;;;;;;;;;33.50;28.75;;;;;7.73;71.44;102748.25;6309802;22;45122;-83
2021/11/18 05:27:52;;;;;;;;;;;;;;;;;;;;;
2021/11/18 05:30:33;;;;;;;;;;;;;;;;;;;;;
2021/11/18 05:33:23;;;;;;;;;34.25;28.75;;;;;7.68;71.83;102753.28;6308711;22;72793;-83
2021/11/18 05:35:56;;;;;;;;;35.00;30.75;;;;;7.71;71.76;102763.91;6309531;22;45354;-83
2021/11/18 05:38:27;;;;;;;;;29.75;25.25;;;;;7.77;72.10;102770.22;6310035;22;45177;-83
2021/11/18 05:41:00;;;;;;;;;35.00;28.00;;;;;7.64;72.05;102760.97;6280947;22;46309;-83
2021/11/18 05:43:45;;;;;;;;;;;;;;;;;;;;;
2021/11/18 05:46:21;;;;;;;;;32.50;30.00;;;;;7.62;71.95;102767.91;6308720;22;69164;-84
2021/11/18 05:49:15;;;;;;;;;;;;;;;;;;;;;
2021/11/18 05:51:54;;;;;;;;;;;;;;;;;;;;;
2021/11/18 05:54:20;;;;;;;;;34.25;30.00;;;;;7.66;71.83;102786.41;6308878;22;73141;-82
2021/11/18 05:56:45;;;;;;;;;34.75;29.25;;;;;7.59;71.81;102775.59;6309823;22;45097;-84
2021/11/18 05:59:41;;;;;;;;;27.25;25.25;;;;;7.61;71.70;102790.56;6309848;22;45259;-83
2021/11/18 06:02:16;;;;;;;;;;;;;;;;;;;;;
2021/11/18 06:05:43;;;;;;;;;41.00;34.50;;;;;7.64;71.83;102806.41;6307771;22;72824;-84
2021/11/18 06:08:14;;;;;;;;;36.25;34.00;;;;;7.50;71.81;102790.13;6303949;22;45339;-83
2021/11/18 06:11:14;;;;;;;;;;;;;;;;;;;;;
2021/11/18 06:13:53;;;;;;;;;;;;;;;;;;;;;
2021/11/18 06:16:44;;;;;;;;;;;;;;;;;;;;;
2021/11/18 06:19:13;;;;;;;;;43.75;36.75;;;;;7.50;71.52;102800.59;6307080;22;68685;-83
2021/11/18 06:21:56;;;;;;;;;;;;;;;;;;;;;
2021/11/18 06:24:24;;;;;;;;;42.00;36.00;;;;;7.36;71.71;102780.78;6308009;22;74038;-84
2021/11/18 06:27:05;;;;;;;;;;;;;;;;;;;;;
2021/11/18 06:29:47;;;;;;;;;;;;;;;;;;;;;
2021/11/18 06:32:35;;;;;;;;;;;;;;;;;;;;;
2021/11/18 06:35:06;;;;;;;;;41.00;34.50;;;;;7.34;71.93;102794.66;6309361;22;75188;-84
2021/11/18 06:38:05;;;;;;;;;;;;;;;;;;;;;
2021/11/18 06:41:33;;;;;;;;;;;;;;;;;;;;;
2021/11/18 06:55:35;;;;;;;;;;;;;;;;;;;;;
2021/11/18 07:01:55;;;;;;;;;;;;;;;;;;;;;
2021/11/18 07:08:12;;;;;;;;;39.75;35.50;;;;;7.27;71.48;102827.53;6221311;22;45450;-86
2021/11/18 07:10:43;;;;;;;;;37.50;32.00;;;;;7.31;71.55;102837.34;6275831;22;45422;-84
2021/11/18 07:13:46;;;;;;;;;;;;;;;;;;;;;
2021/11/18 07:19:10;;;;;;;;;39.00;36.75;;;;;7.34;71.46;102844.44;6193088;22;45158;-82
2021/11/18 07:21:36;;;;;;;;;40.25;35.75;;;;;7.32;71.64;102838.22;6267216;22;45514;-83
2021/11/18 07:24:12;;;;;;;;;42.25;39.25;;;;;7.32;71.60;102830.38;6282178;22;47079;-84
2021/11/18 07:26:38;;;;;;;;;40.50;38.00;;;;;7.27;71.65;102817.97;6282302;22;45504;-83
2021/11/18 07:29:46;;;;;;;;;;;;;;;;;;;;;
2021/11/18 07:32:12;;;;;;;;;33.75;29.50;;;;;7.23;71.38;102802.06;6308684;22;72133;-83
2021/11/18 07:34:38;;;;;;;;;37.75;35.00;;;;;7.38;71.16;102820.19;6282169;22;47153;-83
2021/11/18 07:37:03;;;;;;;;;37.50;34.00;;;;;7.27;71.23;102797.03;6309976;22;45385;-83
2021/11/18 07:44:30;;;;;;;;;;;;;;;;;;;;;
2021/11/18 07:56:47;;;;;;;;;;;;;;;;;;;;;
2021/11/18 08:00:06;;;;;;;;;;;;;;;;;;;;;
2021/11/18 08:13:34;;;;;;;;;48.75;39.75;;;;;7.69;71.26;102830.22;6034590;23;45406;-85
2021/11/18 08:54:51;;;;;;;;;52.50;42.75;;;;;8.26;71.77;102878.03;6011159;23;45437;-87
2021/11/18 11:08:05;;;;;;;;;;;;;;;;;;;;;
2021/11/18 11:11:24;;;;;;;;;26.50;22.50;;;;;12.62;64.13;102912.91;6237348;22;69735;-82
2021/11/18 11:14:53;;;;;;;;;;;;;;;;;;;;;
2021/11/18 11:17:52;;;;;;;;;30.00;25.50;;;;;13.06;63.15;102889.19;6236870;22;75838;-82
2021/11/18 11:20:51;;;;;;;;;26.00;25.00;;;;;13.21;62.62;102889.50;6238230;22;45764;-82
2021/11/18 11:27:02;;;;;;;;;30.75;27.00;;;;;13.61;61.82;102897.34;6218716;22;45680;-81
2021/11/18 11:30:18;;;;;;;;;27.25;24.75;;;;;13.87;61.48;102893.41;6204774;22;47896;-83
2021/11/18 12:04:52;;;;;;;;;;;;;;;;;;;;;
2021/11/18 12:08:38;;;;;;;;;16.75;15.50;;;;;17.21;54.26;102860.53;6054033;23;72765;-82
2021/11/18 12:11:36;;;;;;;;;;;;;;;;;;;;;
2021/11/18 12:18:35;;;;;;;;;;;;;;;;;;;;;
2021/11/18 12:21:31;;;;;;;;;17.67;13.00;;;;;17.77;51.01;102865.06;6097607;23;71797;-83
2021/11/18 12:53:16;;;;;;;;;;;;;;;;;;;;;
2021/11/18 12:59:45;;;;;;;;;;;;;;;;;;;;;
2021/11/18 13:02:44;;;;;;;;;9.67;9.67;;;;;19.03;48.06;102815.91;5941713;23;72611;-83
2021/11/18 18:54:08;;;;;;;;;46.00;37.00;;;;;11.72;62.51;102930.00;6253457;22;46986;-85
2021/11/18 19:21:50;;;;;;;;;42.00;35.75;;;;;11.47;63.81;102926.72;5998297;23;45578;-83
2021/11/18 19:24:08;;;;;;;;;39.50;33.75;;;;;11.38;63.65;102915.00;6039369;23;46252;-84
2021/11/18 19:34:19;;;;;;;;;28.75;24.50;;;;;11.42;64.11;102923.03;6112703;23;45735;-82
2021/11/18 19:37:52;;;;;;;;;41.75;34.25;;;;;11.42;63.88;102928.31;6114710;23;45681;-82
2021/11/18 19:44:20;;;;;;;;;;;;;;;;;;;;;
2021/11/18 19:46:59;;;;;;;;;40.25;37.25;;;;;11.27;64.11;102909.41;6034437;23;67479;-82
2021/11/18 19:50:09;;;;;;;;;52.00;39.50;;;;;11.27;64.46;102906.78;6055683;23;45391;-81
2021/11/18 19:53:10;;;;;;;;;;;;;;;;;;;;;
2021/11/18 19:57:14;;;;;;;;;46.25;37.00;;;;;11.27;64.66;102922.59;6282360;22;73203;-83
2021/11/18 19:59:25;;;;;;;;;41.75;36.75;;;;;11.26;64.57;102920.81;6279403;22;45288;-86
2021/11/18 20:02:01;;;;;;;;;38.25;35.00;;;;;11.17;64.63;102910.94;6298233;22;45705;-81
2021/11/18 20:08:55;;;;;;;;;;;;;;;;;;;;;
2021/11/18 20:11:47;;;;;;;;;42.00;35.00;;;;;11.21;64.59;102927.72;6247621;22;69970;-81
2021/11/18 20:18:13;;;;;;;;;;;;;;;;;;;;;
2021/11/18 20:21:15;;;;;;;;;;;;;;;;;;;;;
2021/11/18 20:32:02;;;;;;;;;;;;;;;;;;;;;
2021/11/18 20:36:06;;;;;;;;;;;;;;;;;;;;;
2021/11/18 20:42:21;;;;;;;;;;;;;;;;;;;;;
2021/11/18 20:44:53;;;;;;;;;33.50;31.50;;;;;10.95;64.93;102934.84;6269029;22;46043;-87
2021/11/18 20:51:42;;;;;;;;;37.00;32.75;;;;;11.06;64.98;102954.50;6283246;22;45547;-83
2021/11/18 20:55:02;;;;;;;;;34.75;32.50;;;;;11.04;64.97;102965.03;6271633;22;45727;-82
2021/11/18 21:05:18;;;;;;;;;;;;;;;;;;;;;
2021/11/18 21:08:34;;;;;;;;;;;;;;;;;;;;;
2021/11/18 21:11:50;;;;;;;;;;;;;;;;;;;;;
2021/11/18 21:18:39;;;;;;;;;;;;;;;;;;;;;
2021/11/18 21:21:27;;;;;;;;;;;;;;;;;;;;;
2021/11/18 21:24:03;;;;;;;;;29.75;24.25;;;;;10.85;65.46;102970.56;6198490;22;75028;-83
2021/11/18 21:27:22;;;;;;;;;;;;;;;;;;;;;
2021/11/18 21:30:07;;;;;;;;;;;;;;;;;;;;;
2021/11/18 21:33:35;;;;;;;;;;;;;;;;;;;;;
2021/11/18 21:39:53;;;;;;;;;;;;;;;;;;;;;
2021/11/18 21:42:22;;;;;;;;;31.25;27.75;;;;;10.82;65.06;102989.81;6298921;22;68748;-83
2021/11/18 21:45:19;;;;;;;;;29.00;26.25;;;;;10.76;64.88;102989.59;6299947;22;45602;-84
2021/11/18 21:48:00;;;;;;;;;24.25;24.00;;;;;10.78;65.03;102995.84;6299277;22;47021;-84
2021/11/18 21:50:33;;;;;;;;;29.00;24.50;;;;;10.65;65.04;102979.59;6297298;22;45805;-82
2021/11/18 21:53:40;;;;;;;;;25.75;24.50;;;;;10.71;65.57;102988.56;6300261;22;45407;-83
2021/11/18 21:56:23;;;;;;;;;25.00;23.00;;;;;10.76;65.24;102997.50;6298128;22;45358;-84
2021/11/18 21:59:05;;;;;;;;;;;;;;;;;;;;;
2021/11/18 22:06:04;;;;;;;;;;;;;;;;;;;;;
2021/11/18 22:09:15;;;;;;;;;;;;;;;;;;;;;
2021/11/18 22:15:24;;;;;;;;;24.00;21.75;;;;;10.58;65.45;102960.03;6132548;23;45673;-85
2021/11/18 22:18:48;;;;;;;;;29.50;26.50;;;;;10.71;65.56;102982.41;6102950;23;45529;-85
2021/11/18 22:21:18;;;;;;;;;37.50;28.50;;;;;10.71;65.27;102983.28;6137068;23;45665;-83
2021/11/18 22:23:47;;;;;;;;;23.00;21.50;;;;;10.77;65.33;102995.75;6118570;23;47226;-85
2021/11/18 22:26:23;;;;;;;;;24.75;22.50;;;;;10.65;65.60;102971.69;6224313;22;45441;-83
2021/11/18 22:28:50;;;;;;;;;21.00;20.00;;;;;10.75;65.44;102982.56;6301827;22;45698;-83
2021/11/18 22:31:24;;;;;;;;;28.00;25.75;;;;;10.67;65.43;102968.25;6302555;22;45486;-83
2021/11/18 22:33:53;;;;;;;;;26.75;24.25;;;;;10.72;65.38;102984.19;6298267;22;47805;-85
2021/11/18 22:36:43;;;;;;;;;;;;;;;;;;;;;
2021/11/18 22:39:54;;;;;;;;;;;;;;;;;;;;;
2021/11/18 22:46:48;;;;;;;;;;;;;;;;;;;;;
2021/11/18 22:49:38;;;;;;;;;;;;;;;;;;;;;
2021/11/18 22:52:19;;;;;;;;;;;;;;;;;;;;;
2021/11/18 22:54:56;;;;;;;;;26.50;21.75;;;;;10.62;65.75;102971.59;6173694;23;71897;-84
2021/11/18 22:57:58;;;;;;;;;22.00;21.00;;;;;10.70;65.61;102993.81;6251381;22;46497;-84
2021/11/18 23:01:18;;;;;;;;;19.75;19.75;;;;;10.71;65.49;102990.31;6292719;22;45433;-84
2021/11/18 23:03:47;;;;;;;;;28.00;23.75;;;;;10.60;65.43;102961.88;6257542;22;45584;-83
2021/11/18 23:06:23;;;;;;;;;25.25;23.00;;;;;10.63;65.47;102960.19;6272579;22;45792;-83
2021/11/18 23:15:41;;;;;;;;;23.50;20.00;;;;;10.77;65.11;102969.41;6091810;23;45632;-84
2021/11/18 23:18:12;;;;;;;;;19.25;17.75;;;;;10.76;65.21;102978.19;6144664;23;46271;-82
2021/11/18 23:20:44;;;;;;;;;20.75;18.50;;;;;10.78;65.26;102989.66;6172356;23;46107;-83
2021/11/18 23:23:13;;;;;;;;;23.25;18.75;;;;;10.77;65.31;102979.97;6226919;22;45741;-83
2021/11/18 23:25:41;;;;;;;;;22.00;18.25;;;;;10.72;65.10;102969.31;6298421;22;45695;-82
2021/11/18 23:28:31;;;;;;;;;23.75;21.75;;;;;10.68;65.00;102958.59;6301000;22;45665;-83
2021/11/18 23:31:06;;;;;;;;;18.25;16.75;;;;;10.70;65.05;102967.47;6298796;22;48227;-82
2021/11/18 23:33:34;;;;;;;;;22.50;19.50;;;;;10.69;65.01;102960.38;6297719;22;45890;-82
2021/11/18 23:39:29;;;;;;;;;20.75;18.00;;;;;10.71;65.17;102961.34;6281912;22;45656;-84
2021/11/18 23:42:48;;;;;;;;;;;;;;;;;;;;;
2021/11/18 23:49:27;;;;;;;;;20.25;17.75;;;;;10.78;65.04;102974.75;6274327;22;45720;-83
2021/11/18 23:52:20;;;;;;;;;22.50;18.00;;;;;10.80;65.28;102973.06;6298882;22;45519;-83
2021/11/18 23:55:36;;;;;;;;;;;;;;;;;;;;;
2021/11/18 23:57:58;;;;;;;;;25.25;21.00;;;;;10.80;65.07;102972.19;6292442;22;45675;-83
